KIDI

Indiana County / Jimmy Stewart Field / Airport

Indiana, Pennsylvania, USA
METAR KIDI 231055Z AUTO 32007KT 6SM BR SCT010 BKN022 OVC027 16/15 A3009 RMK A01
Observed Flight Rules
May-23 @ 10:55 UTC (19 minutes ago) Marginal Visual Flight Rules
Wind Visibility Clouds Conditions
320° at 7 knots 6 miles
  • Scattered at 1,000' AGL
  • Broken at 2,200' AGL
  • Overcast at 2,700' AGL
  • Mist
Temperatures Readings
Current 16°C / 61°F
Dewpoint 15°C / 59°F
Humidity 94%
Altimeter 30.09" Hg
Pressure 1019 hPa
Elevation 429
METAR KIDI 231055Z AUTO 32007KT 6SM BR SCT010 BKN022 OVC027 16/15 A3009 RMK A01
Observed Flight Rules
May-23 @ 10:55 UTC
(19 minutes ago)
MVFR
Wind Visibility
320° at 7 knots 6 miles
Clouds
  • Scattered at 1,000' AGL
  • Broken at 2,200' AGL
  • Overcast at 2,700' AGL
Conditions
  • Mist
Temperature Dewpoint
16°C / 61°F 15°C / 59°F
Humidity Altimeter Pressure
94% 30.09" Hg 1019 hPa